createdAt,value
2022-09-25T00:01:17.193Z,13.48
2022-09-25T00:03:44.895Z,13.50
2022-09-25T00:06:14.764Z,13.51
2022-09-25T00:08:44.151Z,13.54
2022-09-25T00:11:14.698Z,13.49
2022-09-25T00:13:43.453Z,13.50
2022-09-25T00:16:13.085Z,13.41
2022-09-25T00:18:58.834Z,13.36
2022-09-25T00:21:31.430Z,13.39
2022-09-25T00:24:01.596Z,13.41
2022-09-25T00:26:31.068Z,13.47
2022-09-25T00:29:01.042Z,13.48
2022-09-25T00:31:30.033Z,13.55
2022-09-25T00:33:59.849Z,13.57
2022-09-25T00:36:28.293Z,13.46
2022-09-25T00:38:55.918Z,13.52
2022-09-25T00:41:27.273Z,13.50
2022-09-25T00:43:57.209Z,13.51
2022-09-25T00:46:29.944Z,13.58
2022-09-25T00:49:04.098Z,13.48
2022-09-25T00:51:41.187Z,13.51
2022-09-25T00:54:15.893Z,13.49
2022-09-25T00:56:48.688Z,13.52
2022-09-25T00:59:20.678Z,13.62
2022-09-25T01:01:49.253Z,13.55
2022-09-25T01:04:17.874Z,13.54
2022-09-25T01:06:45.776Z,13.56
2022-09-25T01:09:13.465Z,13.54
2022-09-25T01:11:41.091Z,13.53
2022-09-25T01:14:11.246Z,13.58
2022-09-25T01:16:46.058Z,13.51
2022-09-25T01:19:27.668Z,13.47
2022-09-25T01:22:01.903Z,13.42
2022-09-25T01:24:58.721Z,13.41
2022-09-25T01:27:38.999Z,13.35
2022-09-25T01:30:11.718Z,13.32
2022-09-25T01:32:52.658Z,13.34
2022-09-25T01:35:31.579Z,13.33
2022-09-25T01:38:04.318Z,13.32
2022-09-25T01:40:36.814Z,13.24
2022-09-25T01:43:13.847Z,13.25
2022-09-25T01:45:49.634Z,13.34
2022-09-25T01:48:20.806Z,13.28
2022-09-25T01:50:52.041Z,13.25
2022-09-25T01:53:24.603Z,13.22
2022-09-25T01:55:58.842Z,13.35
2022-09-25T01:58:29.868Z,13.26
2022-09-25T02:01:03.736Z,13.37
2022-09-25T02:03:36.094Z,13.38
2022-09-25T02:06:07.274Z,13.33
2022-09-25T02:08:40.686Z,13.18
2022-09-25T02:11:09.765Z,13.18
2022-09-25T02:13:41.504Z,13.29
2022-09-25T02:16:14.162Z,13.30
2022-09-25T02:18:59.585Z,13.24
2022-09-25T02:21:35.833Z,13.33
2022-09-25T02:24:13.179Z,13.29
2022-09-25T02:26:40.990Z,13.19
2022-09-25T02:29:09.724Z,13.13
2022-09-25T02:31:41.624Z,13.20
2022-09-25T02:34:14.707Z,13.20
2022-09-25T02:36:44.857Z,13.05
2022-09-25T02:39:15.559Z,13.12
2022-09-25T02:41:55.607Z,13.10
2022-09-25T02:44:36.195Z,13.02
2022-09-25T02:47:20.871Z,13.09
2022-09-25T02:49:55.468Z,13.11
2022-09-25T02:52:32.182Z,12.99
2022-09-25T02:55:07.561Z,12.94
2022-09-25T02:57:43.619Z,13.05
2022-09-25T03:00:13.413Z,13.02
2022-09-25T03:02:49.638Z,12.97
2022-09-25T03:05:21.236Z,12.84
2022-09-25T03:08:10.462Z,12.71
2022-09-25T03:10:38.897Z,12.84
2022-09-25T03:13:17.797Z,12.75
2022-09-25T03:15:47.843Z,12.69
2022-09-25T03:18:17.146Z,12.72
2022-09-25T03:20:45.228Z,12.75
2022-09-25T03:23:13.209Z,12.84
2022-09-25T03:25:48.979Z,12.58
2022-09-25T03:28:17.726Z,12.52
2022-09-25T03:31:00.858Z,12.60
2022-09-25T03:33:35.161Z,12.48
2022-09-25T03:36:05.455Z,12.63
2022-09-25T03:38:33.501Z,12.70
2022-09-25T03:41:01.584Z,12.74
2022-09-25T03:43:33.503Z,12.63
2022-09-25T03:46:01.149Z,12.58
2022-09-25T03:48:30.169Z,12.53
2022-09-25T03:50:57.989Z,12.49
2022-09-25T03:53:44.080Z,12.51
2022-09-25T03:56:14.634Z,12.45
2022-09-25T03:58:42.373Z,12.47
2022-09-25T04:01:21.307Z,12.55
2022-09-25T04:03:51.322Z,12.50
2022-09-25T04:06:24.148Z,12.51
2022-09-25T04:08:53.245Z,12.37
2022-09-25T04:11:22.825Z,12.52
2022-09-25T04:13:50.708Z,12.52
2022-09-25T04:16:20.831Z,12.41
2022-09-25T04:18:53.050Z,12.43
2022-09-25T04:21:20.799Z,12.43
2022-09-25T04:24:08.526Z,12.52
2022-09-25T04:26:36.651Z,12.50
2022-09-25T04:29:05.075Z,12.47
2022-09-25T04:31:33.243Z,12.48
2022-09-25T04:34:02.596Z,12.48
2022-09-25T04:36:30.220Z,12.55
2022-09-25T04:38:57.971Z,12.50
2022-09-25T04:41:25.649Z,12.36
2022-09-25T04:43:53.333Z,12.43
2022-09-25T04:46:22.681Z,12.56
2022-09-25T04:48:51.068Z,12.46
2022-09-25T04:51:20.866Z,12.50
2022-09-25T04:53:48.766Z,12.59
2022-09-25T04:56:16.976Z,12.55
2022-09-25T04:58:46.365Z,12.47
2022-09-25T05:01:14.187Z,12.49
2022-09-25T05:03:42.806Z,12.45
2022-09-25T05:06:10.655Z,12.46
2022-09-25T05:08:42.425Z,12.52
2022-09-25T05:11:11.370Z,12.47
2022-09-25T05:13:39.255Z,12.49
2022-09-25T05:16:07.249Z,12.48
2022-09-25T05:18:34.999Z,12.34
2022-09-25T05:21:05.119Z,12.37
2022-09-25T05:23:32.821Z,12.18
2022-09-25T05:26:02.536Z,12.21
2022-09-25T05:28:30.788Z,12.27
2022-09-25T05:31:00.137Z,12.31
2022-09-25T05:33:28.178Z,12.47
2022-09-25T05:35:55.983Z,12.43
2022-09-25T05:38:23.625Z,12.47
2022-09-25T05:40:52.590Z,12.48
2022-09-25T05:43:21.746Z,12.43
2022-09-25T05:45:54.801Z,12.42
2022-09-25T05:48:23.326Z,12.50
2022-09-25T05:50:53.217Z,12.60
2022-09-25T05:53:21.093Z,12.62
2022-09-25T05:55:52.061Z,12.57
2022-09-25T05:58:21.876Z,12.50
2022-09-25T06:00:50.050Z,12.28
2022-09-25T06:03:18.775Z,12.21
2022-09-25T06:05:47.250Z,12.09
2022-09-25T06:08:15.019Z,12.10
2022-09-25T06:10:43.678Z,12.15
2022-09-25T06:13:11.436Z,12.20
2022-09-25T06:15:42.044Z,12.23
2022-09-25T06:18:10.705Z,12.37
2022-09-25T06:20:38.574Z,12.45
2022-09-25T06:23:06.226Z,12.56
2022-09-25T06:25:33.942Z,12.74
2022-09-25T06:28:02.486Z,12.74
2022-09-25T06:30:34.246Z,12.88
2022-09-25T06:33:04.990Z,13.03
2022-09-25T06:35:32.694Z,13.07
2022-09-25T06:38:01.558Z,13.33
2022-09-25T06:40:38.831Z,13.44
2022-09-25T06:43:07.998Z,13.61
2022-09-25T06:45:39.300Z,13.42
2022-09-25T06:48:10.300Z,13.62
2022-09-25T06:50:42.252Z,13.77
2022-09-25T06:53:10.418Z,13.95
2022-09-25T06:55:38.700Z,14.13
2022-09-25T06:58:08.424Z,14.02
2022-09-25T07:00:36.603Z,13.90
2022-09-25T07:03:30.078Z,14.00
2022-09-25T07:06:00.897Z,13.89
2022-09-25T07:08:29.310Z,14.16
2022-09-25T07:10:58.669Z,13.94
2022-09-25T07:13:28.827Z,14.22
2022-09-25T07:15:58.470Z,13.87
2022-09-25T07:18:27.595Z,13.98
2022-09-25T07:21:00.776Z,13.92
2022-09-25T07:23:31.315Z,14.07
2022-09-25T07:26:04.535Z,13.87
2022-09-25T07:28:33.563Z,13.81
2022-09-25T07:31:11.275Z,13.78
2022-09-25T07:33:39.206Z,13.85
2022-09-25T07:36:07.362Z,14.08
2022-09-25T07:38:37.087Z,13.92
2022-09-25T07:41:06.290Z,14.07
2022-09-25T07:43:34.663Z,14.00
2022-09-25T07:46:03.048Z,14.07
2022-09-25T07:48:31.639Z,14.14
2022-09-25T07:51:01.176Z,14.44
2022-09-25T07:53:29.286Z,14.46
2022-09-25T07:56:03.697Z,-145.20
2022-09-25T07:58:35.337Z,15.13
2022-09-25T08:01:05.531Z,15.11
2022-09-25T08:03:33.320Z,14.93
2022-09-25T08:06:01.890Z,14.55
2022-09-25T08:08:30.460Z,14.42
2022-09-25T08:11:02.681Z,14.37
2022-09-25T08:13:32.411Z,14.42
2022-09-25T08:16:00.326Z,14.34
2022-09-25T08:18:41.932Z,14.68
2022-09-25T08:21:14.109Z,14.58
2022-09-25T08:23:46.927Z,14.60
2022-09-25T08:26:17.409Z,14.80
2022-09-25T08:28:45.679Z,14.81
2022-09-25T08:31:14.672Z,15.04
2022-09-25T08:33:45.725Z,14.86
2022-09-25T08:36:13.420Z,15.27
2022-09-25T08:38:41.393Z,15.57
2022-09-25T08:41:14.746Z,-145.20
2022-09-25T08:43:48.284Z,-145.20
2022-09-25T08:46:43.277Z,-145.20
2022-09-25T08:49:14.268Z,-145.20
2022-09-25T08:51:47.031Z,-145.20
2022-09-25T08:54:21.930Z,-145.20
2022-09-25T08:56:52.321Z,-145.20
2022-09-25T08:59:27.541Z,-145.20
2022-09-25T09:02:00.305Z,-145.20
2022-09-25T09:04:32.004Z,-145.20
2022-09-25T09:07:25.685Z,-145.20
2022-09-25T09:09:59.187Z,-145.20
2022-09-25T09:12:41.676Z,-145.20
2022-09-25T09:15:29.240Z,-145.20
2022-09-25T09:17:58.979Z,-145.20
2022-09-25T09:20:42.316Z,-145.20
2022-09-25T09:23:17.446Z,-145.20
2022-09-25T09:25:55.807Z,-145.20
2022-09-25T09:28:48.447Z,-145.20
2022-09-25T09:31:23.659Z,-145.20
2022-09-25T09:34:02.773Z,-145.20
2022-09-25T09:36:38.103Z,-145.20
2022-09-25T09:39:17.750Z,-145.20
2022-09-25T09:41:56.299Z,-145.20
2022-09-25T09:44:36.339Z,-145.20
2022-09-25T09:47:19.248Z,-145.20
2022-09-25T09:49:54.283Z,-145.20
2022-09-25T09:52:26.432Z,-145.20
2022-09-25T09:55:02.989Z,-145.20
2022-09-25T09:57:34.655Z,-145.20
2022-09-25T10:00:06.350Z,-145.20
2022-09-25T10:02:41.457Z,-145.20
2022-09-25T10:05:17.213Z,-145.20
2022-09-25T10:07:47.549Z,-145.20
2022-09-25T10:10:17.215Z,-145.20
2022-09-25T10:12:48.626Z,-145.20
2022-09-25T10:15:29.324Z,-145.20
2022-09-25T10:18:00.876Z,-145.20
2022-09-25T10:20:43.030Z,-145.20
2022-09-25T10:23:26.190Z,-145.20
2022-09-25T10:25:56.059Z,-145.20
2022-09-25T10:28:28.615Z,-145.20
2022-09-25T10:30:57.525Z,-145.20
2022-09-25T10:33:28.741Z,-145.20
2022-09-25T10:35:56.556Z,-145.20
2022-09-25T10:38:36.662Z,-145.20
2022-09-25T10:41:08.927Z,-145.20
2022-09-25T10:43:37.032Z,-145.20
2022-09-25T10:46:13.268Z,-145.20
2022-09-25T10:49:01.306Z,-145.20
2022-09-25T10:51:29.456Z,-145.20
2022-09-25T10:54:13.730Z,-145.20
2022-09-25T10:56:42.717Z,-145.20
2022-09-25T10:59:21.793Z,-145.20
2022-09-25T11:01:51.983Z,-145.20
2022-09-25T11:04:24.688Z,-145.20
2022-09-25T11:06:58.205Z,-145.20
2022-09-25T11:09:28.198Z,-145.20
2022-09-25T11:12:07.879Z,-145.20
2022-09-25T11:14:37.542Z,-145.20
2022-09-25T11:17:07.043Z,-145.20
2022-09-25T11:19:37.958Z,-145.20
2022-09-25T11:22:16.751Z,-145.20
2022-09-25T11:25:01.249Z,-145.20
2022-09-25T11:27:36.316Z,-145.20
2022-09-25T11:30:08.370Z,-145.20
2022-09-25T11:32:48.961Z,-145.20
2022-09-25T11:35:37.760Z,-145.20
2022-09-25T11:38:14.448Z,-145.20
2022-09-25T11:41:11.362Z,-145.20
2022-09-25T11:44:03.034Z,-145.20
2022-09-25T11:46:41.591Z,-145.20
2022-09-25T11:49:20.077Z,-145.20
2022-09-25T11:52:28.187Z,-145.20
2022-09-25T11:55:11.581Z,-145.20
2022-09-25T11:57:49.623Z,-145.20
2022-09-25T12:00:21.498Z,-145.20
2022-09-25T12:03:14.104Z,-145.20
2022-09-25T12:05:57.174Z,-145.20
2022-09-25T12:08:40.060Z,-145.20
2022-09-25T12:11:21.377Z,-145.20
2022-09-25T12:13:57.041Z,-145.20
2022-09-25T12:16:37.041Z,-145.20
2022-09-25T12:19:19.036Z,-145.20
2022-09-25T12:21:53.194Z,-145.20
2022-09-25T12:24:36.601Z,-145.20
2022-09-25T12:27:15.799Z,-145.20
2022-09-25T12:30:01.381Z,-145.20
2022-09-25T12:32:50.978Z,-145.20
2022-09-25T12:35:34.213Z,-145.20
2022-09-25T12:38:13.033Z,-145.20
2022-09-25T12:40:50.314Z,-145.20
2022-09-25T12:43:23.773Z,-145.20
2022-09-25T12:46:14.794Z,-145.20
2022-09-25T12:48:52.183Z,-145.20
2022-09-25T12:51:25.907Z,-145.20
2022-09-25T12:53:58.610Z,-145.20
2022-09-25T12:56:34.999Z,-145.20
2022-09-25T12:59:11.067Z,-145.20
2022-09-25T13:01:46.766Z,-145.20
2022-09-25T13:04:56.542Z,-145.20
2022-09-25T13:07:30.344Z,-145.20
2022-09-25T13:09:58.194Z,-145.20
2022-09-25T13:12:34.510Z,-145.20
2022-09-25T13:15:08.835Z,-145.20
2022-09-25T13:17:37.339Z,-145.20
2022-09-25T13:20:44.254Z,-145.20
2022-09-25T13:23:16.944Z,-145.20
2022-09-25T13:25:48.117Z,-145.20
2022-09-25T13:28:22.851Z,-145.20
2022-09-25T13:31:08.695Z,-145.20
2022-09-25T13:33:45.860Z,-145.20
2022-09-25T13:36:49.421Z,-145.20
2022-09-25T13:39:43.618Z,-145.20
2022-09-25T13:42:16.846Z,-145.20
2022-09-25T13:45:07.945Z,-145.20
2022-09-25T13:47:52.280Z,-145.20
2022-09-25T13:50:26.825Z,-145.20
2022-09-25T13:53:23.924Z,-145.20
2022-09-25T13:56:18.641Z,-145.20
2022-09-25T13:59:23.326Z,-145.20
2022-09-25T14:02:38.020Z,-145.20
2022-09-25T14:05:07.355Z,-145.20
2022-09-25T14:07:35.865Z,-145.20
2022-09-25T14:10:04.992Z,-145.20
2022-09-25T14:12:49.107Z,-145.20
2022-09-25T14:15:26.812Z,-145.20
2022-09-25T14:17:59.189Z,-145.20
2022-09-25T14:20:40.541Z,-145.20
2022-09-25T14:23:14.997Z,-145.20
2022-09-25T14:25:46.890Z,-145.20
2022-09-25T14:28:24.464Z,-145.20
2022-09-25T14:31:03.158Z,-145.20
2022-09-25T14:33:54.146Z,-145.20
2022-09-25T14:36:28.341Z,-145.20
2022-09-25T14:39:08.367Z,-145.20
2022-09-25T14:42:05.439Z,-145.20
2022-09-25T14:44:55.690Z,-145.20
2022-09-25T14:47:23.802Z,-145.20
2022-09-25T14:49:54.884Z,-145.20
2022-09-25T14:52:26.325Z,-145.20
2022-09-25T14:54:57.338Z,-145.20
2022-09-25T14:57:28.588Z,-145.20
2022-09-25T15:00:01.146Z,-145.20
2022-09-25T15:02:34.362Z,-145.20
2022-09-25T15:07:59.598Z,19.38
2022-09-25T15:10:31.690Z,19.20
2022-09-25T15:13:16.009Z,19.08
2022-09-25T15:16:06.291Z,18.96
2022-09-25T15:18:37.894Z,18.93
2022-09-25T15:21:09.415Z,18.84
2022-09-25T15:23:39.323Z,18.77
2022-09-25T15:26:07.603Z,18.76
2022-09-25T15:28:40.175Z,18.70
2022-09-25T15:31:08.352Z,18.71
2022-09-25T15:33:38.401Z,18.79
2022-09-25T15:36:16.828Z,18.60
2022-09-25T15:38:54.079Z,18.42
2022-09-25T15:41:24.319Z,18.48
2022-09-25T15:43:52.627Z,18.43
2022-09-25T15:46:37.013Z,18.41
2022-09-25T15:49:06.717Z,18.27
2022-09-25T15:51:37.111Z,18.20
2022-09-25T15:54:39.914Z,18.26
2022-09-25T15:57:13.915Z,18.26
2022-09-25T15:59:58.386Z,18.20
2022-09-25T16:02:48.764Z,18.14
2022-09-25T16:05:26.566Z,18.12
2022-09-25T16:08:15.209Z,18.02
2022-09-25T16:10:47.721Z,18.05
2022-09-25T16:13:25.711Z,17.94
2022-09-25T16:15:54.749Z,17.91
2022-09-25T16:18:32.727Z,17.78
2022-09-25T16:21:16.418Z,17.78
2022-09-25T16:23:45.385Z,17.68
2022-09-25T16:26:19.742Z,17.73
2022-09-25T16:29:03.390Z,17.74
2022-09-25T16:31:32.424Z,17.61
2022-09-25T16:34:01.680Z,17.57
2022-09-25T16:36:40.562Z,17.51
2022-09-25T16:39:25.400Z,17.38
2022-09-25T16:41:53.862Z,17.32
2022-09-25T16:44:29.733Z,17.22
2022-09-25T16:47:14.968Z,17.15
2022-09-25T16:49:44.876Z,17.18
2022-09-25T16:52:20.500Z,17.11
2022-09-25T16:54:54.609Z,17.17
2022-09-25T16:57:23.681Z,17.12
2022-09-25T16:59:53.641Z,17.15
2022-09-25T17:02:32.813Z,17.15
2022-09-25T17:05:03.012Z,17.15
2022-09-25T17:07:31.247Z,17.13
2022-09-25T17:10:00.960Z,17.06
2022-09-25T17:12:31.318Z,17.07
2022-09-25T17:15:00.705Z,17.04
2022-09-25T17:17:29.776Z,17.06
2022-09-25T17:19:58.981Z,16.95
2022-09-25T17:22:30.473Z,16.96
2022-09-25T17:25:02.649Z,16.87
2022-09-25T17:27:30.616Z,16.91
2022-09-25T17:30:02.198Z,16.92
2022-09-25T17:32:31.369Z,16.88
2022-09-25T17:35:01.700Z,16.83
2022-09-25T17:37:31.576Z,16.79
2022-09-25T17:39:59.332Z,16.83
2022-09-25T17:42:27.794Z,16.80
2022-09-25T17:44:57.581Z,16.82
2022-09-25T17:47:27.485Z,16.89
2022-09-25T17:49:55.296Z,16.78
2022-09-25T17:52:23.011Z,16.75
2022-09-25T17:54:50.891Z,16.65
2022-09-25T17:57:19.124Z,16.73
2022-09-25T17:59:47.256Z,16.68
2022-09-25T18:02:17.559Z,16.72
2022-09-25T18:04:47.077Z,16.68
2022-09-25T18:07:18.713Z,16.57
2022-09-25T18:09:46.530Z,16.61
2022-09-25T18:12:14.335Z,16.54
2022-09-25T18:14:46.453Z,16.62
2022-09-25T18:17:16.004Z,16.62
2022-09-25T18:20:01.890Z,16.63
2022-09-25T18:22:31.462Z,16.60
2022-09-25T18:24:59.233Z,16.50
2022-09-25T18:27:31.377Z,16.50
2022-09-25T18:29:59.339Z,16.47
2022-09-25T18:32:27.314Z,16.44
2022-09-25T18:34:55.259Z,16.33
2022-09-25T18:37:22.987Z,16.31
2022-09-25T18:39:52.278Z,16.30
2022-09-25T18:42:20.015Z,16.20
2022-09-25T18:44:48.594Z,16.25
2022-09-25T18:47:16.552Z,16.24
2022-09-25T18:49:47.495Z,16.22
2022-09-25T18:52:15.757Z,16.15
2022-09-25T18:54:43.663Z,16.13
2022-09-25T18:57:14.127Z,16.11
2022-09-25T18:59:43.230Z,16.05
2022-09-25T19:02:21.445Z,16.06
2022-09-25T19:04:51.115Z,16.03
2022-09-25T19:07:19.649Z,15.96
2022-09-25T19:09:47.491Z,15.90
2022-09-25T19:12:17.544Z,15.84
2022-09-25T19:14:47.315Z,15.86
2022-09-25T19:17:16.113Z,15.82
2022-09-25T19:19:44.025Z,15.89
2022-09-25T19:22:18.007Z,15.72
2022-09-25T19:24:46.172Z,15.75
2022-09-25T19:27:15.063Z,15.73
2022-09-25T19:29:46.110Z,15.62
2022-09-25T19:32:16.094Z,15.62
2022-09-25T19:34:44.055Z,15.68
2022-09-25T19:37:12.463Z,15.51
2022-09-25T19:39:54.220Z,15.60
2022-09-25T19:42:22.479Z,15.60
2022-09-25T19:44:54.139Z,15.63
2022-09-25T19:47:21.899Z,15.55
2022-09-25T19:49:49.819Z,15.51
2022-09-25T19:52:20.535Z,15.42
2022-09-25T19:54:48.325Z,15.52
2022-09-25T19:57:16.567Z,15.51
2022-09-25T19:59:44.495Z,15.43
2022-09-25T20:02:13.882Z,15.49
2022-09-25T20:04:43.918Z,15.40
2022-09-25T20:07:15.481Z,15.41
2022-09-25T20:09:44.547Z,15.40
2022-09-25T20:12:13.054Z,15.35
2022-09-25T20:14:40.959Z,15.27
2022-09-25T20:17:10.183Z,15.35
2022-09-25T20:19:39.678Z,15.31
2022-09-25T20:22:07.358Z,15.22
2022-09-25T20:24:35.316Z,15.14
2022-09-25T20:27:03.108Z,15.16
2022-09-25T20:29:31.015Z,15.20
2022-09-25T20:31:58.647Z,15.19
2022-09-25T20:34:26.498Z,15.14
2022-09-25T20:36:55.629Z,15.16
2022-09-25T20:39:23.873Z,15.04
2022-09-25T20:41:51.873Z,15.08
2022-09-25T20:44:22.857Z,15.02
2022-09-25T20:46:50.821Z,14.92
2022-09-25T20:49:20.331Z,14.89
2022-09-25T20:51:48.136Z,14.90
2022-09-25T20:54:17.409Z,14.94
2022-09-25T20:56:45.535Z,14.94
2022-09-25T20:59:15.358Z,14.91
2022-09-25T21:01:43.260Z,14.89
2022-09-25T21:04:11.712Z,14.87
2022-09-25T21:06:41.190Z,14.84
2022-09-25T21:09:14.733Z,14.86
2022-09-25T21:11:43.968Z,14.84
2022-09-25T21:14:20.824Z,14.88
2022-09-25T21:16:49.744Z,14.86
2022-09-25T21:19:19.402Z,14.78
2022-09-25T21:21:48.634Z,14.78
2022-09-25T21:24:18.377Z,14.69
2022-09-25T21:26:47.825Z,14.75
2022-09-25T21:29:16.972Z,14.69
2022-09-25T21:31:49.764Z,14.64
2022-09-25T21:34:19.334Z,14.68
2022-09-25T21:36:52.157Z,14.65
2022-09-25T21:39:21.424Z,14.59
2022-09-25T21:41:50.901Z,14.57
2022-09-25T21:44:21.346Z,14.59
2022-09-25T21:46:49.180Z,14.56
2022-09-25T21:49:19.211Z,14.43
2022-09-25T21:51:49.523Z,14.42
2022-09-25T21:54:18.081Z,14.40
2022-09-25T21:56:46.432Z,14.36
2022-09-25T21:59:16.147Z,14.29
2022-09-25T22:01:44.401Z,14.27
2022-09-25T22:04:14.138Z,14.19
2022-09-25T22:06:43.750Z,14.13
2022-09-25T22:09:13.629Z,14.14
2022-09-25T22:11:42.478Z,14.02
2022-09-25T22:14:15.476Z,14.00
2022-09-25T22:16:53.468Z,14.13
2022-09-25T22:19:23.551Z,14.10
2022-09-25T22:21:53.595Z,14.12
2022-09-25T22:24:22.679Z,14.15
2022-09-25T22:26:52.585Z,14.16
2022-09-25T22:29:21.168Z,14.06
2022-09-25T22:31:49.537Z,14.04
2022-09-25T22:34:21.713Z,14.03
2022-09-25T22:36:52.537Z,14.03
2022-09-25T22:39:41.975Z,14.01
2022-09-25T22:42:09.684Z,14.06
2022-09-25T22:44:37.378Z,14.03
2022-09-25T22:47:05.056Z,13.94
2022-09-25T22:49:34.134Z,13.96
2022-09-25T22:52:02.359Z,13.98
2022-09-25T22:54:30.133Z,13.96
2022-09-25T22:56:57.859Z,13.98
2022-09-25T22:59:25.592Z,13.93
2022-09-25T23:01:55.195Z,13.95
2022-09-25T23:04:25.026Z,13.94
2022-09-25T23:06:54.589Z,13.91
2022-09-25T23:09:25.057Z,13.94
2022-09-25T23:11:53.062Z,13.82
2022-09-25T23:14:22.988Z,13.72
2022-09-25T23:16:52.426Z,13.74
2022-09-25T23:19:20.856Z,13.71
2022-09-25T23:21:49.207Z,13.78
2022-09-25T23:24:19.649Z,13.66
2022-09-25T23:26:47.542Z,13.72
2022-09-25T23:29:17.642Z,13.68
2022-09-25T23:31:46.244Z,13.64
2022-09-25T23:34:15.309Z,13.63
2022-09-25T23:36:43.417Z,13.57
2022-09-25T23:39:16.297Z,13.44
2022-09-25T23:41:45.381Z,13.57
2022-09-25T23:44:13.508Z,13.61
2022-09-25T23:46:43.092Z,13.59
2022-09-25T23:49:11.371Z,13.53
2022-09-25T23:51:39.181Z,13.53
2022-09-25T23:54:07.287Z,13.61
2022-09-25T23:56:36.255Z,13.49
2022-09-25T23:59:05.998Z,13.48
